sensor_id;sensor_type;location;lat;lon;timestamp;temperature;humidity
29777;DHT22;16677;52.224;7.484;2023-04-03T00:01:16;3.70;1.00
29777;DHT22;16677;52.224;7.484;2023-04-03T00:03:53;3.60;1.00
29777;DHT22;16677;52.224;7.484;2023-04-03T00:06:20;3.60;1.00
29777;DHT22;16677;52.224;7.484;2023-04-03T00:08:56;3.60;1.00
29777;DHT22;16677;52.224;7.484;2023-04-03T00:11:39;3.50;1.00
29777;DHT22;16677;52.224;7.484;2023-04-03T00:14:07;3.50;1.00
29777;DHT22;16677;52.224;7.484;2023-04-03T00:16:43;3.40;1.00
29777;DHT22;16677;52.224;7.484;2023-04-03T00:19:13;3.40;1.00
29777;DHT22;16677;52.224;7.484;2023-04-03T00:21:45;3.30;1.00
29777;DHT22;16677;52.224;7.484;2023-04-03T00:24:38;3.30;1.00
29777;DHT22;16677;52.224;7.484;2023-04-03T00:27:05;3.30;1.00
29777;DHT22;16677;52.224;7.484;2023-04-03T00:29:34;3.30;10.60
29777;DHT22;16677;52.224;7.484;2023-04-03T00:32:01;3.30;21.90
29777;DHT22;16677;52.224;7.484;2023-04-03T00:34:29;3.20;6.00
29777;DHT22;16677;52.224;7.484;2023-04-03T00:36:56;3.20;3.30
29777;DHT22;16677;52.224;7.484;2023-04-03T00:39:24;3.20;1.00
29777;DHT22;16677;52.224;7.484;2023-04-03T00:41:51;3.20;1.00
29777;DHT22;16677;52.224;7.484;2023-04-03T00:47:00;3.10;1.00
29777;DHT22;16677;52.224;7.484;2023-04-03T00:49:28;3.10;1.00
29777;DHT22;16677;52.224;7.484;2023-04-03T00:51:55;3.10;1.00
29777;DHT22;16677;52.224;7.484;2023-04-03T00:54:22;3.00;1.00
29777;DHT22;16677;52.224;7.484;2023-04-03T00:56:51;3.10;1.00
29777;DHT22;16677;52.224;7.484;2023-04-03T00:59:20;2.80;1.00
29777;DHT22;16677;52.224;7.484;2023-04-03T01:01:55;2.80;1.00
29777;DHT22;16677;52.224;7.484;2023-04-03T01:04:26;2.90;1.00
29777;DHT22;16677;52.224;7.484;2023-04-03T01:07:04;2.90;1.00
29777;DHT22;16677;52.224;7.484;2023-04-03T01:09:34;2.90;99.90
29777;DHT22;16677;52.224;7.484;2023-04-03T01:14:46;2.90;99.90
29777;DHT22;16677;52.224;7.484;2023-04-03T01:17:32;2.90;90.40
29777;DHT22;16677;52.224;7.484;2023-04-03T01:25:19;2.90;1.00
29777;DHT22;16677;52.224;7.484;2023-04-03T01:27:46;2.90;1.00
29777;DHT22;16677;52.224;7.484;2023-04-03T01:30:13;2.90;1.00
29777;DHT22;16677;52.224;7.484;2023-04-03T01:32:44;2.90;1.00
29777;DHT22;16677;52.224;7.484;2023-04-03T01:35:11;2.80;1.00
29777;DHT22;16677;52.224;7.484;2023-04-03T01:37:38;2.80;1.00
29777;DHT22;16677;52.224;7.484;2023-04-03T01:40:05;2.70;1.00
29777;DHT22;16677;52.224;7.484;2023-04-03T01:42:33;2.70;1.00
29777;DHT22;16677;52.224;7.484;2023-04-03T01:45:00;2.60;1.00
29777;DHT22;16677;52.224;7.484;2023-04-03T01:47:27;2.60;1.00
29777;DHT22;16677;52.224;7.484;2023-04-03T01:49:54;2.60;1.00
29777;DHT22;16677;52.224;7.484;2023-04-03T01:52:21;2.60;1.00
29777;DHT22;16677;52.224;7.484;2023-04-03T01:54:48;2.60;1.00
29777;DHT22;16677;52.224;7.484;2023-04-03T01:57:15;2.50;1.00
29777;DHT22;16677;52.224;7.484;2023-04-03T01:59:43;2.50;1.00
29777;DHT22;16677;52.224;7.484;2023-04-03T02:02:10;2.40;1.00
29777;DHT22;16677;52.224;7.484;2023-04-03T02:04:38;2.30;1.00
29777;DHT22;16677;52.224;7.484;2023-04-03T02:07:05;2.20;1.00
29777;DHT22;16677;52.224;7.484;2023-04-03T02:09:33;2.10;1.00
29777;DHT22;16677;52.224;7.484;2023-04-03T02:12:00;2.10;1.00
29777;DHT22;16677;52.224;7.484;2023-04-03T02:14:27;2.00;1.00
29777;DHT22;16677;52.224;7.484;2023-04-03T02:16:54;2.10;14.30
29777;DHT22;16677;52.224;7.484;2023-04-03T02:19:21;2.10;1.00
29777;DHT22;16677;52.224;7.484;2023-04-03T02:21:48;2.10;1.00
29777;DHT22;16677;52.224;7.484;2023-04-03T02:24:15;2.10;1.00
29777;DHT22;16677;52.224;7.484;2023-04-03T02:26:42;2.00;1.00
29777;DHT22;16677;52.224;7.484;2023-04-03T02:29:09;2.10;1.00
29777;DHT22;16677;52.224;7.484;2023-04-03T02:31:36;2.00;1.00
29777;DHT22;16677;52.224;7.484;2023-04-03T02:34:03;2.00;1.00
29777;DHT22;16677;52.224;7.484;2023-04-03T02:36:31;1.90;1.00
29777;DHT22;16677;52.224;7.484;2023-04-03T02:38:58;1.90;1.00
29777;DHT22;16677;52.224;7.484;2023-04-03T02:41:25;1.90;1.00
29777;DHT22;16677;52.224;7.484;2023-04-03T02:43:58;1.90;1.00
29777;DHT22;16677;52.224;7.484;2023-04-03T02:46:25;1.90;1.00
29777;DHT22;16677;52.224;7.484;2023-04-03T02:48:52;1.90;1.00
29777;DHT22;16677;52.224;7.484;2023-04-03T02:51:19;1.80;3.10
29777;DHT22;16677;52.224;7.484;2023-04-03T02:53:46;1.80;22.90
29777;DHT22;16677;52.224;7.484;2023-04-03T02:56:14;1.70;37.50
29777;DHT22;16677;52.224;7.484;2023-04-03T02:58:41;1.70;92.00
29777;DHT22;16677;52.224;7.484;2023-04-03T03:01:08;1.60;99.90
29777;DHT22;16677;52.224;7.484;2023-04-03T03:03:35;1.60;99.90
29777;DHT22;16677;52.224;7.484;2023-04-03T03:08:29;1.60;99.90
29777;DHT22;16677;52.224;7.484;2023-04-03T03:10:56;1.60;99.90
29777;DHT22;16677;52.224;7.484;2023-04-03T03:13:24;1.50;99.90
29777;DHT22;16677;52.224;7.484;2023-04-03T03:15:51;1.50;99.90
29777;DHT22;16677;52.224;7.484;2023-04-03T03:18:18;1.50;99.90
29777;DHT22;16677;52.224;7.484;2023-04-03T03:20:45;1.50;99.90
29777;DHT22;16677;52.224;7.484;2023-04-03T03:23:12;1.50;99.90
29777;DHT22;16677;52.224;7.484;2023-04-03T03:25:39;1.60;99.90
29777;DHT22;16677;52.224;7.484;2023-04-03T03:28:07;1.50;99.90
29777;DHT22;16677;52.224;7.484;2023-04-03T03:30:34;1.40;99.90
29777;DHT22;16677;52.224;7.484;2023-04-03T03:33:01;1.40;99.90
29777;DHT22;16677;52.224;7.484;2023-04-03T03:35:28;1.30;99.90
29777;DHT22;16677;52.224;7.484;2023-04-03T03:37:55;1.30;99.90
29777;DHT22;16677;52.224;7.484;2023-04-03T03:40:22;1.30;99.90
29777;DHT22;16677;52.224;7.484;2023-04-03T03:42:49;1.30;99.90
29777;DHT22;16677;52.224;7.484;2023-04-03T03:45:17;1.30;99.90
29777;DHT22;16677;52.224;7.484;2023-04-03T03:47:44;1.20;99.90
29777;DHT22;16677;52.224;7.484;2023-04-03T03:50:12;1.20;99.90
29777;DHT22;16677;52.224;7.484;2023-04-03T03:52:39;1.10;99.90
29777;DHT22;16677;52.224;7.484;2023-04-03T03:55:06;1.10;99.90
29777;DHT22;16677;52.224;7.484;2023-04-03T03:57:33;1.10;99.90
29777;DHT22;16677;52.224;7.484;2023-04-03T04:00:00;1.00;99.90
29777;DHT22;16677;52.224;7.484;2023-04-03T04:02:27;1.00;99.90
29777;DHT22;16677;52.224;7.484;2023-04-03T04:04:54;1.00;99.90
29777;DHT22;16677;52.224;7.484;2023-04-03T04:07:22;1.00;99.90
29777;DHT22;16677;52.224;7.484;2023-04-03T04:09:49;0.90;99.90
29777;DHT22;16677;52.224;7.484;2023-04-03T04:12:16;0.90;99.90
29777;DHT22;16677;52.224;7.484;2023-04-03T04:14:43;0.90;99.90
29777;DHT22;16677;52.224;7.484;2023-04-03T04:17:13;0.80;99.90
29777;DHT22;16677;52.224;7.484;2023-04-03T04:19:41;0.80;99.90
29777;DHT22;16677;52.224;7.484;2023-04-03T04:22:07;0.90;99.90
29777;DHT22;16677;52.224;7.484;2023-04-03T04:24:34;0.90;99.90
29777;DHT22;16677;52.224;7.484;2023-04-03T04:27:03;0.90;99.90
29777;DHT22;16677;52.224;7.484;2023-04-03T04:29:30;0.90;95.50
29777;DHT22;16677;52.224;7.484;2023-04-03T04:32:02;0.80;97.40
29777;DHT22;16677;52.224;7.484;2023-04-03T04:34:29;0.80;99.90
29777;DHT22;16677;52.224;7.484;2023-04-03T04:36:56;0.80;85.90
29777;DHT22;16677;52.224;7.484;2023-04-03T04:39:24;0.80;1.00
29777;DHT22;16677;52.224;7.484;2023-04-03T04:41:51;0.80;1.00
29777;DHT22;16677;52.224;7.484;2023-04-03T04:44:18;0.90;1.00
29777;DHT22;16677;52.224;7.484;2023-04-03T04:46:45;0.80;1.00
29777;DHT22;16677;52.224;7.484;2023-04-03T04:49:12;0.80;1.00
29777;DHT22;16677;52.224;7.484;2023-04-03T04:51:39;0.80;1.00
29777;DHT22;16677;52.224;7.484;2023-04-03T04:54:16;0.80;1.00
29777;DHT22;16677;52.224;7.484;2023-04-03T04:56:43;0.80;1.00
29777;DHT22;16677;52.224;7.484;2023-04-03T04:59:10;0.90;1.00
29777;DHT22;16677;52.224;7.484;2023-04-03T05:01:37;0.80;1.00
29777;DHT22;16677;52.224;7.484;2023-04-03T05:04:05;0.80;1.00
29777;DHT22;16677;52.224;7.484;2023-04-03T05:06:32;0.80;1.00
29777;DHT22;16677;52.224;7.484;2023-04-03T05:08:59;0.80;1.00
29777;DHT22;16677;52.224;7.484;2023-04-03T05:11:26;0.80;1.00
29777;DHT22;16677;52.224;7.484;2023-04-03T05:13:53;0.80;1.00
29777;DHT22;16677;52.224;7.484;2023-04-03T05:16:20;0.80;1.00
29777;DHT22;16677;52.224;7.484;2023-04-03T05:18:47;0.70;1.00
29777;DHT22;16677;52.224;7.484;2023-04-03T05:21:14;0.80;1.00
29777;DHT22;16677;52.224;7.484;2023-04-03T05:23:41;0.80;1.00
29777;DHT22;16677;52.224;7.484;2023-04-03T05:26:08;0.80;1.00
29777;DHT22;16677;52.224;7.484;2023-04-03T05:28:35;0.90;1.00
29777;DHT22;16677;52.224;7.484;2023-04-03T05:31:02;1.00;1.00
29777;DHT22;16677;52.224;7.484;2023-04-03T05:33:29;1.20;1.00
29777;DHT22;16677;52.224;7.484;2023-04-03T05:36:01;1.40;1.00
29777;DHT22;16677;52.224;7.484;2023-04-03T05:38:29;1.50;1.00
29777;DHT22;16677;52.224;7.484;2023-04-03T05:40:57;1.70;99.90
29777;DHT22;16677;52.224;7.484;2023-04-03T05:43:23;1.70;99.90
29777;DHT22;16677;52.224;7.484;2023-04-03T05:45:51;1.90;99.90
29777;DHT22;16677;52.224;7.484;2023-04-03T05:48:18;2.00;99.90
29777;DHT22;16677;52.224;7.484;2023-04-03T05:50:45;2.00;99.90
29777;DHT22;16677;52.224;7.484;2023-04-03T05:53:15;2.10;99.90
29777;DHT22;16677;52.224;7.484;2023-04-03T05:55:45;2.30;99.90
29777;DHT22;16677;52.224;7.484;2023-04-03T05:58:12;2.50;63.10
29777;DHT22;16677;52.224;7.484;2023-04-03T06:00:39;2.60;61.10
29777;DHT22;16677;52.224;7.484;2023-04-03T06:03:06;2.90;2.80
29777;DHT22;16677;52.224;7.484;2023-04-03T06:05:33;3.00;1.00
29777;DHT22;16677;52.224;7.484;2023-04-03T06:08:02;3.20;1.00
29777;DHT22;16677;52.224;7.484;2023-04-03T06:10:29;3.30;1.00
29777;DHT22;16677;52.224;7.484;2023-04-03T06:12:56;3.40;1.00
29777;DHT22;16677;52.224;7.484;2023-04-03T06:15:23;3.40;1.00
29777;DHT22;16677;52.224;7.484;2023-04-03T06:17:51;3.50;1.00
29777;DHT22;16677;52.224;7.484;2023-04-03T06:20:18;3.80;1.00
29777;DHT22;16677;52.224;7.484;2023-04-03T06:22:45;4.10;99.90
29777;DHT22;16677;52.224;7.484;2023-04-03T06:25:15;4.30;99.90
29777;DHT22;16677;52.224;7.484;2023-04-03T06:27:44;4.30;99.90
29777;DHT22;16677;52.224;7.484;2023-04-03T06:30:12;4.00;99.90
29777;DHT22;16677;52.224;7.484;2023-04-03T06:32:39;4.10;99.90
29777;DHT22;16677;52.224;7.484;2023-04-03T06:35:06;4.30;99.90
29777;DHT22;16677;52.224;7.484;2023-04-03T06:37:33;4.30;99.90
29777;DHT22;16677;52.224;7.484;2023-04-03T06:40:00;4.30;99.90
29777;DHT22;16677;52.224;7.484;2023-04-03T06:42:28;4.50;99.90
29777;DHT22;16677;52.224;7.484;2023-04-03T06:44:54;4.50;99.90
29777;DHT22;16677;52.224;7.484;2023-04-03T06:47:21;4.50;99.90
29777;DHT22;16677;52.224;7.484;2023-04-03T06:49:48;4.50;99.90
29777;DHT22;16677;52.224;7.484;2023-04-03T06:52:15;4.60;99.90
29777;DHT22;16677;52.224;7.484;2023-04-03T06:54:42;4.60;99.90
29777;DHT22;16677;52.224;7.484;2023-04-03T06:57:09;4.80;99.90
29777;DHT22;16677;52.224;7.484;2023-04-03T06:59:36;4.70;99.90
29777;DHT22;16677;52.224;7.484;2023-04-03T07:02:03;5.10;99.90
29777;DHT22;16677;52.224;7.484;2023-04-03T07:04:30;5.10;99.90
29777;DHT22;16677;52.224;7.484;2023-04-03T07:06:57;5.20;99.90
29777;DHT22;16677;52.224;7.484;2023-04-03T07:09:24;5.20;99.90
29777;DHT22;16677;52.224;7.484;2023-04-03T07:11:52;5.20;99.90
29777;DHT22;16677;52.224;7.484;2023-04-03T07:14:19;5.40;99.90
29777;DHT22;16677;52.224;7.484;2023-04-03T07:16:47;5.40;99.90
29777;DHT22;16677;52.224;7.484;2023-04-03T07:19:14;5.30;99.90
29777;DHT22;16677;52.224;7.484;2023-04-03T07:21:41;5.10;99.90
29777;DHT22;16677;52.224;7.484;2023-04-03T07:24:10;5.40;99.90
29777;DHT22;16677;52.224;7.484;2023-04-03T07:26:40;5.20;99.90
29777;DHT22;16677;52.224;7.484;2023-04-03T07:29:07;4.90;99.90
29777;DHT22;16677;52.224;7.484;2023-04-03T07:31:35;5.60;99.90
29777;DHT22;16677;52.224;7.484;2023-04-03T07:34:02;5.50;99.90
29777;DHT22;16677;52.224;7.484;2023-04-03T07:36:29;5.30;99.90
29777;DHT22;16677;52.224;7.484;2023-04-03T07:38:59;5.40;99.90
29777;DHT22;16677;52.224;7.484;2023-04-03T07:41:26;5.50;99.90
29777;DHT22;16677;52.224;7.484;2023-04-03T07:43:53;5.40;99.90
29777;DHT22;16677;52.224;7.484;2023-04-03T07:46:21;5.40;99.90
29777;DHT22;16677;52.224;7.484;2023-04-03T07:48:48;5.50;99.90
29777;DHT22;16677;52.224;7.484;2023-04-03T07:51:15;5.80;99.90
29777;DHT22;16677;52.224;7.484;2023-04-03T07:53:42;5.70;99.90
29777;DHT22;16677;52.224;7.484;2023-04-03T07:56:09;5.80;99.90
29777;DHT22;16677;52.224;7.484;2023-04-03T07:58:36;5.50;99.90
29777;DHT22;16677;52.224;7.484;2023-04-03T08:01:04;5.70;99.90
29777;DHT22;16677;52.224;7.484;2023-04-03T08:03:30;5.60;99.90
29777;DHT22;16677;52.224;7.484;2023-04-03T08:06:01;5.50;99.90
29777;DHT22;16677;52.224;7.484;2023-04-03T08:08:34;5.60;99.90
29777;DHT22;16677;52.224;7.484;2023-04-03T08:11:02;5.60;99.90
29777;DHT22;16677;52.224;7.484;2023-04-03T08:13:32;5.90;99.90
29777;DHT22;16677;52.224;7.484;2023-04-03T08:16:06;6.10;99.90
29777;DHT22;16677;52.224;7.484;2023-04-03T08:18:43;6.00;99.90
29777;DHT22;16677;52.224;7.484;2023-04-03T08:21:10;6.10;99.90
29777;DHT22;16677;52.224;7.484;2023-04-03T08:23:40;6.30;99.90
29777;DHT22;16677;52.224;7.484;2023-04-03T08:26:12;6.30;99.90
29777;DHT22;16677;52.224;7.484;2023-04-03T08:28:40;6.30;99.90
29777;DHT22;16677;52.224;7.484;2023-04-03T08:31:12;6.40;99.90
29777;DHT22;16677;52.224;7.484;2023-04-03T08:33:41;6.30;99.90
29777;DHT22;16677;52.224;7.484;2023-04-03T08:36:16;6.60;99.90
29777;DHT22;16677;52.224;7.484;2023-04-03T08:38:54;6.70;99.90
29777;DHT22;16677;52.224;7.484;2023-04-03T08:41:34;6.80;99.90
29777;DHT22;16677;52.224;7.484;2023-04-03T08:49:32;6.80;99.90
29777;DHT22;16677;52.224;7.484;2023-04-03T08:52:09;6.90;99.90
29777;DHT22;16677;52.224;7.484;2023-04-03T08:54:55;7.10;99.90
29777;DHT22;16677;52.224;7.484;2023-04-03T08:59:57;7.00;99.90
29777;DHT22;16677;52.224;7.484;2023-04-03T09:02:49;7.20;99.90
29777;DHT22;16677;52.224;7.484;2023-04-03T09:05:17;7.10;99.90
29777;DHT22;16677;52.224;7.484;2023-04-03T09:07:54;6.90;99.90
29777;DHT22;16677;52.224;7.484;2023-04-03T09:10:29;6.80;99.90
29777;DHT22;16677;52.224;7.484;2023-04-03T09:13:01;6.80;99.90
29777;DHT22;16677;52.224;7.484;2023-04-03T09:15:33;7.10;99.90
29777;DHT22;16677;52.224;7.484;2023-04-03T09:23:34;7.40;99.90
29777;DHT22;16677;52.224;7.484;2023-04-03T09:26:14;7.60;99.90
29777;DHT22;16677;52.224;7.484;2023-04-03T09:28:44;7.80;99.90
29777;DHT22;16677;52.224;7.484;2023-04-03T09:31:27;7.40;99.90
29777;DHT22;16677;52.224;7.484;2023-04-03T09:33:58;7.40;99.90
29777;DHT22;16677;52.224;7.484;2023-04-03T09:39:10;7.50;99.90
29777;DHT22;16677;52.224;7.484;2023-04-03T09:41:38;7.30;99.90
29777;DHT22;16677;52.224;7.484;2023-04-03T09:44:17;7.60;99.90
29777;DHT22;16677;52.224;7.484;2023-04-03T09:46:47;7.40;99.90
29777;DHT22;16677;52.224;7.484;2023-04-03T09:49:14;7.20;99.90
29777;DHT22;16677;52.224;7.484;2023-04-03T09:51:41;7.30;99.90
29777;DHT22;16677;52.224;7.484;2023-04-03T09:54:24;7.40;99.90
29777;DHT22;16677;52.224;7.484;2023-04-03T09:56:53;7.60;99.90
29777;DHT22;16677;52.224;7.484;2023-04-03T09:59:22;7.40;99.90
29777;DHT22;16677;52.224;7.484;2023-04-03T10:04:41;7.50;99.90
29777;DHT22;16677;52.224;7.484;2023-04-03T10:10:19;7.70;99.90
29777;DHT22;16677;52.224;7.484;2023-04-03T10:13:01;7.80;99.90
29777;DHT22;16677;52.224;7.484;2023-04-03T10:15:34;7.90;99.90
29777;DHT22;16677;52.224;7.484;2023-04-03T10:18:05;7.90;99.90
29777;DHT22;16677;52.224;7.484;2023-04-03T10:20:57;8.20;99.90
29777;DHT22;16677;52.224;7.484;2023-04-03T10:23:33;8.00;99.90
29777;DHT22;16677;52.224;7.484;2023-04-03T10:29:31;8.20;99.90
29777;DHT22;16677;52.224;7.484;2023-04-03T10:34:43;8.30;99.90
29777;DHT22;16677;52.224;7.484;2023-04-03T10:37:30;8.40;99.90
29777;DHT22;16677;52.224;7.484;2023-04-03T10:40:10;8.40;99.90
29777;DHT22;16677;52.224;7.484;2023-04-03T10:45:43;8.40;99.90
29777;DHT22;16677;52.224;7.484;2023-04-03T10:48:35;8.50;99.90
29777;DHT22;16677;52.224;7.484;2023-04-03T10:59:02;8.50;99.90
29777;DHT22;16677;52.224;7.484;2023-04-03T11:01:36;8.50;99.90
29777;DHT22;16677;52.224;7.484;2023-04-03T11:04:05;8.30;99.90
29777;DHT22;16677;52.224;7.484;2023-04-03T11:06:47;8.20;99.90
29777;DHT22;16677;52.224;7.484;2023-04-03T11:11:53;7.80;99.90
29777;DHT22;16677;52.224;7.484;2023-04-03T11:14:31;8.20;99.90
29777;DHT22;16677;52.224;7.484;2023-04-03T11:17:06;8.50;99.90
29777;DHT22;16677;52.224;7.484;2023-04-03T11:19:57;8.30;99.90
29777;DHT22;16677;52.224;7.484;2023-04-03T11:23:19;8.20;99.90
29777;DHT22;16677;52.224;7.484;2023-04-03T11:25:50;8.50;99.90
29777;DHT22;16677;52.224;7.484;2023-04-03T11:28:19;8.70;99.90
29777;DHT22;16677;52.224;7.484;2023-04-03T11:36:30;8.50;99.90
29777;DHT22;16677;52.224;7.484;2023-04-03T11:39:21;8.30;99.90
29777;DHT22;16677;52.224;7.484;2023-04-03T11:41:50;8.00;99.90
29777;DHT22;16677;52.224;7.484;2023-04-03T11:44:30;7.80;99.90
29777;DHT22;16677;52.224;7.484;2023-04-03T11:47:00;7.60;99.90
29777;DHT22;16677;52.224;7.484;2023-04-03T11:49:51;7.90;99.90
29777;DHT22;16677;52.224;7.484;2023-04-03T12:06:41;7.90;99.90
29777;DHT22;16677;52.224;7.484;2023-04-03T12:08:52;7.90;99.90
29777;DHT22;16677;52.224;7.484;2023-04-03T12:11:25;8.00;99.90
29777;DHT22;16677;52.224;7.484;2023-04-03T12:16:27;8.70;99.90
29777;DHT22;16677;52.224;7.484;2023-04-03T12:29:19;8.80;99.90
29777;DHT22;16677;52.224;7.484;2023-04-03T12:32:22;8.40;99.90
29777;DHT22;16677;52.224;7.484;2023-04-03T12:46:22;9.30;99.90
29777;DHT22;16677;52.224;7.484;2023-04-03T12:48:52;9.80;99.90
29777;DHT22;16677;52.224;7.484;2023-04-03T12:51:37;10.20;99.90
29777;DHT22;16677;52.224;7.484;2023-04-03T12:54:13;10.10;99.90
29777;DHT22;16677;52.224;7.484;2023-04-03T12:57:08;10.00;99.90
29777;DHT22;16677;52.224;7.484;2023-04-03T12:59:41;10.10;99.90
29777;DHT22;16677;52.224;7.484;2023-04-03T13:02:18;10.30;99.90
29777;DHT22;16677;52.224;7.484;2023-04-03T13:04:48;10.20;99.90
29777;DHT22;16677;52.224;7.484;2023-04-03T13:07:22;9.80;99.90
29777;DHT22;16677;52.224;7.484;2023-04-03T13:09:59;9.30;99.90
29777;DHT22;16677;52.224;7.484;2023-04-03T13:12:27;9.20;99.90
29777;DHT22;16677;52.224;7.484;2023-04-03T13:15:00;9.10;99.90
29777;DHT22;16677;52.224;7.484;2023-04-03T13:17:38;9.00;99.90
29777;DHT22;16677;52.224;7.484;2023-04-03T13:20:10;8.80;99.90
29777;DHT22;16677;52.224;7.484;2023-04-03T13:25:36;9.40;99.90
29777;DHT22;16677;52.224;7.484;2023-04-03T13:28:07;8.80;99.90
29777;DHT22;16677;52.224;7.484;2023-04-03T13:30:40;8.40;99.90
29777;DHT22;16677;52.224;7.484;2023-04-03T13:33:19;8.70;99.90
29777;DHT22;16677;52.224;7.484;2023-04-03T13:35:54;8.50;99.90
29777;DHT22;16677;52.224;7.484;2023-04-03T13:38:31;8.40;99.90
29777;DHT22;16677;52.224;7.484;2023-04-03T13:41:01;8.20;99.90
29777;DHT22;16677;52.224;7.484;2023-04-03T13:43:51;8.20;99.90
29777;DHT22;16677;52.224;7.484;2023-04-03T13:46:24;8.30;99.90
29777;DHT22;16677;52.224;7.484;2023-04-03T13:48:53;8.50;99.90
29777;DHT22;16677;52.224;7.484;2023-04-03T13:51:23;8.90;99.90
29777;DHT22;16677;52.224;7.484;2023-04-03T13:56:25;9.10;99.90
29777;DHT22;16677;52.224;7.484;2023-04-03T13:59:20;9.30;99.90
29777;DHT22;16677;52.224;7.484;2023-04-03T14:01:54;9.60;99.90
29777;DHT22;16677;52.224;7.484;2023-04-03T14:07:16;9.70;99.90
29777;DHT22;16677;52.224;7.484;2023-04-03T14:09:44;9.30;99.90
29777;DHT22;16677;52.224;7.484;2023-04-03T14:12:31;9.20;99.90
29777;DHT22;16677;52.224;7.484;2023-04-03T14:15:01;8.90;99.90
29777;DHT22;16677;52.224;7.484;2023-04-03T14:17:30;8.90;99.90
29777;DHT22;16677;52.224;7.484;2023-04-03T14:19:57;8.50;99.90
29777;DHT22;16677;52.224;7.484;2023-04-03T14:22:29;8.50;99.90
29777;DHT22;16677;52.224;7.484;2023-04-03T14:24:58;8.40;99.90
29777;DHT22;16677;52.224;7.484;2023-04-03T14:27:28;8.30;99.90
29777;DHT22;16677;52.224;7.484;2023-04-03T14:29:57;8.20;99.90
29777;DHT22;16677;52.224;7.484;2023-04-03T14:32:24;8.30;99.90
29777;DHT22;16677;52.224;7.484;2023-04-03T14:34:52;8.60;99.90
29777;DHT22;16677;52.224;7.484;2023-04-03T14:37:20;8.80;99.90
29777;DHT22;16677;52.224;7.484;2023-04-03T14:39:51;9.20;99.90
29777;DHT22;16677;52.224;7.484;2023-04-03T14:42:24;9.70;99.90
29777;DHT22;16677;52.224;7.484;2023-04-03T14:44:53;9.60;99.90
29777;DHT22;16677;52.224;7.484;2023-04-03T14:47:21;9.30;99.90
29777;DHT22;16677;52.224;7.484;2023-04-03T14:49:59;8.90;99.90
29777;DHT22;16677;52.224;7.484;2023-04-03T14:52:28;8.90;99.90
29777;DHT22;16677;52.224;7.484;2023-04-03T14:54:57;8.90;99.90
29777;DHT22;16677;52.224;7.484;2023-04-03T14:57:25;9.10;99.90
29777;DHT22;16677;52.224;7.484;2023-04-03T14:59:54;9.20;99.90
29777;DHT22;16677;52.224;7.484;2023-04-03T15:05:05;9.60;99.90
29777;DHT22;16677;52.224;7.484;2023-04-03T15:07:35;9.80;99.90
29777;DHT22;16677;52.224;7.484;2023-04-03T15:10:14;9.60;99.90
29777;DHT22;16677;52.224;7.484;2023-04-03T15:12:41;9.40;99.90
29777;DHT22;16677;52.224;7.484;2023-04-03T15:15:09;8.90;99.90
29777;DHT22;16677;52.224;7.484;2023-04-03T15:17:37;8.60;99.90
29777;DHT22;16677;52.224;7.484;2023-04-03T15:20:10;8.80;99.90
29777;DHT22;16677;52.224;7.484;2023-04-03T15:22:39;8.90;99.90
29777;DHT22;16677;52.224;7.484;2023-04-03T15:25:07;9.20;99.90
29777;DHT22;16677;52.224;7.484;2023-04-03T15:27:35;9.10;99.90
29777;DHT22;16677;52.224;7.484;2023-04-03T15:30:07;9.00;99.90
29777;DHT22;16677;52.224;7.484;2023-04-03T15:32:37;9.20;99.90
29777;DHT22;16677;52.224;7.484;2023-04-03T15:35:04;9.60;99.90
29777;DHT22;16677;52.224;7.484;2023-04-03T15:37:32;9.90;99.90
29777;DHT22;16677;52.224;7.484;2023-04-03T15:40:03;9.80;99.90
29777;DHT22;16677;52.224;7.484;2023-04-03T15:42:31;9.60;99.90
29777;DHT22;16677;52.224;7.484;2023-04-03T15:44:58;9.30;99.90
29777;DHT22;16677;52.224;7.484;2023-04-03T15:47:26;9.40;99.90
29777;DHT22;16677;52.224;7.484;2023-04-03T15:49:53;9.50;99.90
29777;DHT22;16677;52.224;7.484;2023-04-03T15:52:21;9.50;99.90
29777;DHT22;16677;52.224;7.484;2023-04-03T15:54:48;9.60;99.90
29777;DHT22;16677;52.224;7.484;2023-04-03T15:57:16;9.30;99.90
29777;DHT22;16677;52.224;7.484;2023-04-03T15:59:48;9.30;99.90
29777;DHT22;16677;52.224;7.484;2023-04-03T16:02:15;9.40;99.90
29777;DHT22;16677;52.224;7.484;2023-04-03T16:04:42;9.00;99.90
29777;DHT22;16677;52.224;7.484;2023-04-03T16:07:09;8.60;99.90
29777;DHT22;16677;52.224;7.484;2023-04-03T16:09:36;8.40;99.90
29777;DHT22;16677;52.224;7.484;2023-04-03T16:12:03;8.80;99.90
29777;DHT22;16677;52.224;7.484;2023-04-03T16:14:30;9.20;99.90
29777;DHT22;16677;52.224;7.484;2023-04-03T16:16:57;9.80;99.90
29777;DHT22;16677;52.224;7.484;2023-04-03T16:19:27;9.90;99.90
29777;DHT22;16677;52.224;7.484;2023-04-03T16:21:56;10.40;99.90
29777;DHT22;16677;52.224;7.484;2023-04-03T16:24:23;10.80;99.90
29777;DHT22;16677;52.224;7.484;2023-04-03T16:26:50;10.60;99.90
29777;DHT22;16677;52.224;7.484;2023-04-03T16:29:19;10.60;99.90
29777;DHT22;16677;52.224;7.484;2023-04-03T16:31:47;10.80;99.90
29777;DHT22;16677;52.224;7.484;2023-04-03T16:34:14;11.00;99.90
29777;DHT22;16677;52.224;7.484;2023-04-03T16:36:42;11.20;99.90
29777;DHT22;16677;52.224;7.484;2023-04-03T16:39:09;10.80;99.90
29777;DHT22;16677;52.224;7.484;2023-04-03T16:41:36;10.70;99.90
29777;DHT22;16677;52.224;7.484;2023-04-03T16:44:04;10.80;99.90
29777;DHT22;16677;52.224;7.484;2023-04-03T16:46:34;10.40;99.90
29777;DHT22;16677;52.224;7.484;2023-04-03T16:49:03;10.60;99.90
29777;DHT22;16677;52.224;7.484;2023-04-03T16:51:31;10.80;99.90
29777;DHT22;16677;52.224;7.484;2023-04-03T16:53:59;11.00;99.90
29777;DHT22;16677;52.224;7.484;2023-04-03T16:56:26;10.60;99.90
29777;DHT22;16677;52.224;7.484;2023-04-03T16:58:56;10.10;99.90
29777;DHT22;16677;52.224;7.484;2023-04-03T17:01:25;10.10;99.90
29777;DHT22;16677;52.224;7.484;2023-04-03T17:03:55;10.10;99.90
29777;DHT22;16677;52.224;7.484;2023-04-03T17:06:24;9.80;99.90
29777;DHT22;16677;52.224;7.484;2023-04-03T17:08:51;9.50;99.90
29777;DHT22;16677;52.224;7.484;2023-04-03T17:11:19;9.80;99.90
29777;DHT22;16677;52.224;7.484;2023-04-03T17:13:47;10.20;99.90
29777;DHT22;16677;52.224;7.484;2023-04-03T17:16:15;10.60;99.90
29777;DHT22;16677;52.224;7.484;2023-04-03T17:18:43;10.60;99.90
29777;DHT22;16677;52.224;7.484;2023-04-03T17:21:12;10.30;99.90
29777;DHT22;16677;52.224;7.484;2023-04-03T17:23:41;10.30;99.90
29777;DHT22;16677;52.224;7.484;2023-04-03T17:26:10;10.20;99.90
29777;DHT22;16677;52.224;7.484;2023-04-03T17:28:37;10.20;99.90
29777;DHT22;16677;52.224;7.484;2023-04-03T17:31:06;9.80;99.90
29777;DHT22;16677;52.224;7.484;2023-04-03T17:33:33;9.50;99.90
29777;DHT22;16677;52.224;7.484;2023-04-03T17:36:02;9.40;99.90
29777;DHT22;16677;52.224;7.484;2023-04-03T17:38:30;9.40;99.90
29777;DHT22;16677;52.224;7.484;2023-04-03T17:41:01;9.30;99.90
29777;DHT22;16677;52.224;7.484;2023-04-03T17:43:31;9.10;99.90
29777;DHT22;16677;52.224;7.484;2023-04-03T17:46:06;8.90;99.90
29777;DHT22;16677;52.224;7.484;2023-04-03T17:48:37;8.60;99.90
29777;DHT22;16677;52.224;7.484;2023-04-03T17:51:11;8.30;99.90
29777;DHT22;16677;52.224;7.484;2023-04-03T17:53:40;8.20;99.90
29777;DHT22;16677;52.224;7.484;2023-04-03T17:56:12;8.00;99.90